createdAt,value
2022-09-12T00:00:17.587Z,12.97
2022-09-12T00:01:17.682Z,12.93
2022-09-12T00:02:17.628Z,12.91
2022-09-12T00:03:17.560Z,12.91
2022-09-12T00:04:17.544Z,12.87
2022-09-12T00:05:17.536Z,12.87
2022-09-12T00:06:24.581Z,12.85
2022-09-12T00:07:17.509Z,12.85
2022-09-12T00:08:19.159Z,12.82
2022-09-12T00:09:17.489Z,12.82
2022-09-12T00:10:17.480Z,12.82
2022-09-12T00:11:17.468Z,12.79
2022-09-12T00:12:17.450Z,12.79
2022-09-12T00:13:17.449Z,12.78
2022-09-12T00:14:17.451Z,12.76
2022-09-12T00:15:17.420Z,12.75
2022-09-12T00:16:17.479Z,12.73
2022-09-12T00:17:17.398Z,12.72
2022-09-12T00:18:17.387Z,12.70
2022-09-12T00:19:17.400Z,12.64
2022-09-12T00:20:17.362Z,12.58
2022-09-12T00:21:17.349Z,12.50
2022-09-12T00:22:17.340Z,12.45
2022-09-12T00:23:17.322Z,12.46
2022-09-12T00:24:17.322Z,12.47
2022-09-12T00:25:17.320Z,12.53
2022-09-12T00:26:17.301Z,12.55
2022-09-12T00:27:17.280Z,12.55
2022-09-12T00:28:17.270Z,12.57
2022-09-12T00:29:17.260Z,12.55
2022-09-12T00:30:17.259Z,12.57
2022-09-12T00:31:17.368Z,12.60
2022-09-12T00:32:17.220Z,12.61
2022-09-12T00:33:17.286Z,12.60
2022-09-12T00:34:17.219Z,12.60
2022-09-12T00:35:17.199Z,12.58
2022-09-12T00:36:17.180Z,12.57
2022-09-12T00:37:17.192Z,12.55
2022-09-12T00:38:17.161Z,12.60
2022-09-12T00:39:17.140Z,12.62
2022-09-12T00:40:17.204Z,12.64
2022-09-12T00:41:17.120Z,12.65
2022-09-12T00:42:17.124Z,12.67
2022-09-12T00:43:17.121Z,12.64
2022-09-12T00:44:17.090Z,12.61
2022-09-12T00:45:17.081Z,12.61
2022-09-12T00:46:17.072Z,12.62
2022-09-12T00:47:17.169Z,12.64
2022-09-12T00:48:17.071Z,12.61
2022-09-12T00:49:17.032Z,12.61
2022-09-12T00:50:17.021Z,12.57
2022-09-12T00:51:17.012Z,12.55
2022-09-12T00:52:17.001Z,12.53
2022-09-12T00:53:16.991Z,12.50
2022-09-12T00:54:17.001Z,12.50
2022-09-12T00:55:16.962Z,12.47
2022-09-12T00:56:16.952Z,12.46
2022-09-12T00:57:16.962Z,12.45
2022-09-12T00:58:16.931Z,12.45
2022-09-12T00:59:16.921Z,12.46
2022-09-12T01:00:16.931Z,12.45
2022-09-12T01:01:16.969Z,12.43
2022-09-12T01:02:16.988Z,12.37
2022-09-12T01:03:16.874Z,12.32
2022-09-12T01:04:16.862Z,12.31
2022-09-12T01:05:16.871Z,12.27
2022-09-12T01:06:16.851Z,12.28
2022-09-12T01:07:16.831Z,12.27
2022-09-12T01:08:16.821Z,12.24
2022-09-12T01:09:16.802Z,12.22
2022-09-12T01:10:16.805Z,12.22
2022-09-12T01:11:16.802Z,12.20
2022-09-12T01:12:16.783Z,12.20
2022-09-12T01:13:16.760Z,12.20
2022-09-12T01:14:16.762Z,12.21
2022-09-12T01:15:16.735Z,12.21
2022-09-12T01:16:16.829Z,12.18
2022-09-12T01:17:16.712Z,12.15
2022-09-12T01:18:16.712Z,12.17
2022-09-12T01:19:16.697Z,12.18
2022-09-12T01:20:16.685Z,12.20
2022-09-12T01:21:16.765Z,12.20
2022-09-12T01:22:16.682Z,12.18
2022-09-12T01:23:16.651Z,12.21
2022-09-12T01:24:16.642Z,12.24
2022-09-12T01:25:16.623Z,12.22
2022-09-12T01:26:16.630Z,12.24
2022-09-12T01:27:16.605Z,12.24
2022-09-12T01:28:16.621Z,12.22
2022-09-12T01:29:16.592Z,12.21
2022-09-12T01:30:16.572Z,12.20
2022-09-12T01:31:16.563Z,12.17
2022-09-12T01:32:16.606Z,12.15
2022-09-12T01:33:16.534Z,12.12
2022-09-12T01:34:16.557Z,12.09
2022-09-12T01:35:16.512Z,12.06
2022-09-12T01:36:16.502Z,12.03
2022-09-12T01:37:16.492Z,12.02
2022-09-12T01:38:16.481Z,11.97
2022-09-12T01:39:16.462Z,11.94
2022-09-12T01:40:16.574Z,11.90
2022-09-12T01:41:16.453Z,11.87
2022-09-12T01:42:16.437Z,11.84
2022-09-12T01:43:16.421Z,11.87
2022-09-12T01:44:16.424Z,11.88
2022-09-12T01:45:16.404Z,11.87
2022-09-12T01:46:16.433Z,11.90
2022-09-12T01:47:16.376Z,11.91
2022-09-12T01:48:16.374Z,11.91
2022-09-12T01:49:16.353Z,11.88
2022-09-12T01:50:16.353Z,11.84
2022-09-12T01:51:16.332Z,11.83
2022-09-12T01:52:16.343Z,11.78
2022-09-12T01:53:16.314Z,11.73
2022-09-12T01:54:16.314Z,11.70
2022-09-12T01:55:16.283Z,11.68
2022-09-12T01:56:16.281Z,11.66
2022-09-12T01:57:16.263Z,11.68
2022-09-12T01:58:16.281Z,11.72
2022-09-12T01:59:16.254Z,11.70
2022-09-12T02:00:16.233Z,11.70
2022-09-12T02:01:16.284Z,11.70
2022-09-12T02:02:16.241Z,11.70
2022-09-12T02:03:16.204Z,11.77
2022-09-12T02:04:16.211Z,11.77
2022-09-12T02:05:16.185Z,11.75
2022-09-12T02:06:16.173Z,11.77
2022-09-12T02:07:16.153Z,11.78
2022-09-12T02:08:16.143Z,11.80
2022-09-12T02:09:16.153Z,11.78
2022-09-12T02:10:16.127Z,11.75
2022-09-12T02:11:16.111Z,11.73
2022-09-12T02:12:16.093Z,11.75
2022-09-12T02:13:16.083Z,11.73
2022-09-12T02:14:16.073Z,11.72
2022-09-12T02:15:16.093Z,11.68
2022-09-12T02:16:16.098Z,11.63
2022-09-12T02:17:16.042Z,11.62
2022-09-12T02:18:16.035Z,11.63
2022-09-12T02:19:16.022Z,11.62
2022-09-12T02:20:26.066Z,11.59
2022-09-12T02:21:17.044Z,11.59
2022-09-12T02:22:15.984Z,11.54
2022-09-12T02:23:15.972Z,11.51
2022-09-12T02:24:15.964Z,11.45
2022-09-12T02:25:15.952Z,11.43
2022-09-12T02:26:15.952Z,11.36
2022-09-12T02:27:15.944Z,11.36
2022-09-12T02:28:15.924Z,11.37
2022-09-12T02:29:15.904Z,11.37
2022-09-12T02:30:15.901Z,11.40
2022-09-12T02:31:15.884Z,11.40
2022-09-12T02:32:15.874Z,11.41
2022-09-12T02:33:15.887Z,11.40
2022-09-12T02:34:15.863Z,11.37
2022-09-12T02:35:15.836Z,11.33
2022-09-12T02:36:15.824Z,11.33
2022-09-12T02:37:15.825Z,11.32
2022-09-12T02:38:15.807Z,11.29
2022-09-12T02:39:15.816Z,11.26
2022-09-12T02:40:15.839Z,11.23
2022-09-12T02:41:15.772Z,11.23
2022-09-12T02:42:15.762Z,11.26
2022-09-12T02:43:15.755Z,11.27
2022-09-12T02:44:15.736Z,11.26
2022-09-12T02:45:15.754Z,11.25
2022-09-12T02:46:15.713Z,11.23
2022-09-12T02:47:15.702Z,11.22
2022-09-12T02:48:15.696Z,11.19
2022-09-12T02:49:15.683Z,11.18
2022-09-12T02:50:15.675Z,11.17
2022-09-12T02:51:18.245Z,11.17
2022-09-12T02:52:15.654Z,11.19
2022-09-12T02:53:15.644Z,11.19
2022-09-12T02:54:15.626Z,11.18
2022-09-12T02:55:15.614Z,11.15
2022-09-12T02:56:15.602Z,11.14
2022-09-12T02:57:18.503Z,11.14
2022-09-12T02:58:16.575Z,11.19
2022-09-12T02:59:15.565Z,11.19
2022-09-12T03:00:15.558Z,11.23
2022-09-12T03:01:15.553Z,11.23
2022-09-12T03:02:15.615Z,11.19
2022-09-12T03:03:15.519Z,11.15
2022-09-12T03:04:15.523Z,11.12
2022-09-12T03:05:15.509Z,11.10
2022-09-12T03:06:15.492Z,11.08
2022-09-12T03:07:15.475Z,11.07
2022-09-12T03:08:15.493Z,11.05
2022-09-12T03:09:15.445Z,11.12
2022-09-12T03:10:15.453Z,11.11
2022-09-12T03:11:15.445Z,11.15
2022-09-12T03:12:15.438Z,11.15
2022-09-12T03:13:15.404Z,11.18
2022-09-12T03:14:15.431Z,11.18
2022-09-12T03:15:15.398Z,11.15
2022-09-12T03:16:15.437Z,11.17
2022-09-12T03:17:15.365Z,11.18
2022-09-12T03:18:15.355Z,11.23
2022-09-12T03:19:15.353Z,11.25
2022-09-12T03:20:15.354Z,11.25
2022-09-12T03:21:15.326Z,11.26
2022-09-12T03:22:15.314Z,11.27
2022-09-12T03:23:15.295Z,11.27
2022-09-12T03:24:15.295Z,11.25
2022-09-12T03:25:15.275Z,11.26
2022-09-12T03:26:15.306Z,11.25
2022-09-12T03:27:15.254Z,11.25
2022-09-12T03:28:15.243Z,11.23
2022-09-12T03:29:15.237Z,11.23
2022-09-12T03:30:15.225Z,11.26
2022-09-12T03:31:15.205Z,11.27
2022-09-12T03:32:15.225Z,11.29
2022-09-12T03:33:15.185Z,11.30
2022-09-12T03:34:15.176Z,11.30
2022-09-12T03:35:15.163Z,11.29
2022-09-12T03:36:15.209Z,11.27
2022-09-12T03:37:15.135Z,11.26
2022-09-12T03:38:15.155Z,11.23
2022-09-12T03:39:15.118Z,11.22
2022-09-12T03:40:15.134Z,11.19
2022-09-12T03:41:15.097Z,11.22
2022-09-12T03:42:15.106Z,11.19
2022-09-12T03:43:15.074Z,11.15
2022-09-12T03:44:16.626Z,11.12
2022-09-12T03:45:15.046Z,11.12
2022-09-12T03:46:15.044Z,11.14
2022-09-12T03:47:15.026Z,11.15
2022-09-12T03:48:15.015Z,11.18
2022-09-12T03:49:15.005Z,11.22
2022-09-12T03:50:15.016Z,11.22
2022-09-12T03:51:14.987Z,11.19
2022-09-12T03:52:14.987Z,11.15
2022-09-12T03:53:17.199Z,11.14
2022-09-12T03:54:14.955Z,11.14
2022-09-12T03:55:14.945Z,11.12
2022-09-12T03:56:14.954Z,11.10
2022-09-12T03:57:14.925Z,11.07
2022-09-12T03:58:14.905Z,11.04
2022-09-12T03:59:14.886Z,11.02
2022-09-12T04:00:19.595Z,11.00
2022-09-12T04:01:15.961Z,11.02
2022-09-12T04:02:14.890Z,11.00
2022-09-12T04:03:14.846Z,10.99
2022-09-12T04:04:14.836Z,10.97
2022-09-12T04:05:14.825Z,10.92
2022-09-12T04:06:14.816Z,10.90
2022-09-12T04:07:14.823Z,10.90
2022-09-12T04:08:14.795Z,10.90
2022-09-12T04:09:14.776Z,10.89
2022-09-12T04:10:16.325Z,10.84
2022-09-12T04:11:14.756Z,10.81
2022-09-12T04:12:14.747Z,10.78
2022-09-12T04:13:14.766Z,10.76
2022-09-12T04:14:14.726Z,10.75
2022-09-12T04:15:14.715Z,10.75
2022-09-12T04:16:14.726Z,10.75
2022-09-12T04:17:14.690Z,10.74
2022-09-12T04:18:14.686Z,10.72
2022-09-12T04:19:14.706Z,10.74
2022-09-12T04:20:14.657Z,10.74
2022-09-12T04:21:14.649Z,10.72
2022-09-12T04:22:14.644Z,10.72
2022-09-12T04:23:14.632Z,10.69
2022-09-12T04:24:14.615Z,10.67
2022-09-12T04:25:14.626Z,10.67
2022-09-12T04:26:14.586Z,10.71
2022-09-12T04:27:14.586Z,10.74
2022-09-12T04:28:14.580Z,10.72
2022-09-12T04:29:14.555Z,10.71
2022-09-12T04:30:14.616Z,10.69
2022-09-12T04:31:14.536Z,10.71
2022-09-12T04:32:14.528Z,10.69
2022-09-12T04:33:14.509Z,10.69
2022-09-12T04:34:14.505Z,10.63
2022-09-12T04:35:14.495Z,10.63
2022-09-12T04:36:14.529Z,10.59
2022-09-12T04:37:14.486Z,10.54
2022-09-12T04:38:14.454Z,10.53
2022-09-12T04:39:14.448Z,10.53
2022-09-12T04:40:14.474Z,10.51
2022-09-12T04:41:14.447Z,10.46
2022-09-12T04:42:14.415Z,10.41
2022-09-12T04:43:14.747Z,10.38
2022-09-12T04:44:14.385Z,10.38
2022-09-12T04:45:14.376Z,10.38
2022-09-12T04:46:14.430Z,10.38
2022-09-12T04:47:14.378Z,10.41
2022-09-12T04:48:14.337Z,10.42
2022-09-12T04:49:14.365Z,10.41
2022-09-12T04:50:14.316Z,10.42
2022-09-12T04:51:14.306Z,10.42
2022-09-12T04:52:14.316Z,10.44
2022-09-12T04:53:14.285Z,10.42
2022-09-12T04:54:14.276Z,10.42
2022-09-12T04:55:14.266Z,10.46
2022-09-12T04:56:14.246Z,10.46
2022-09-12T04:57:14.245Z,10.48
2022-09-12T04:58:14.246Z,10.49
2022-09-12T04:59:14.220Z,10.53
2022-09-12T05:00:14.215Z,10.53
2022-09-12T05:01:14.234Z,10.54
2022-09-12T05:02:14.231Z,10.54
2022-09-12T05:03:14.198Z,10.59
2022-09-12T05:04:14.164Z,10.59
2022-09-12T05:05:14.146Z,10.60
2022-09-12T05:06:14.138Z,10.59
2022-09-12T05:07:14.129Z,10.57
2022-09-12T05:08:14.146Z,10.59
2022-09-12T05:09:14.201Z,10.67
2022-09-12T05:10:14.094Z,10.71
2022-09-12T05:11:14.086Z,10.72
2022-09-12T05:12:14.066Z,10.72
2022-09-12T05:13:14.067Z,10.74
2022-09-12T05:14:14.069Z,10.75
2022-09-12T05:15:14.037Z,10.75
2022-09-12T05:16:14.083Z,10.76
2022-09-12T05:17:14.017Z,10.79
2022-09-12T05:18:14.004Z,10.81
2022-09-12T05:19:13.996Z,10.81
2022-09-12T05:20:13.997Z,10.82
2022-09-12T05:21:13.966Z,10.81
2022-09-12T05:22:13.956Z,10.82
2022-09-12T05:23:13.946Z,10.82
2022-09-12T05:24:13.936Z,10.86
2022-09-12T05:25:13.946Z,10.86
2022-09-12T05:26:13.906Z,10.89
2022-09-12T05:27:13.906Z,10.90
2022-09-12T05:28:13.894Z,10.92
2022-09-12T05:29:13.888Z,10.94
2022-09-12T05:30:13.866Z,10.96
2022-09-12T05:31:13.877Z,10.99
2022-09-12T05:32:13.850Z,11.02
2022-09-12T05:33:13.836Z,11.04
2022-09-12T05:34:13.826Z,11.07
2022-09-12T05:35:13.827Z,11.08
2022-09-12T05:36:13.816Z,11.07
2022-09-12T05:37:13.799Z,11.08
2022-09-12T05:38:13.777Z,11.08
2022-09-12T05:39:13.767Z,11.08
2022-09-12T05:40:13.777Z,11.10
2022-09-12T05:41:17.507Z,11.11
2022-09-12T05:42:14.757Z,11.11
2022-09-12T05:43:13.727Z,11.14
2022-09-12T05:44:13.709Z,11.14
2022-09-12T05:45:13.706Z,11.14
2022-09-12T05:46:13.755Z,11.14
2022-09-12T05:47:13.712Z,11.14
2022-09-12T05:48:13.667Z,11.14
2022-09-12T05:49:13.691Z,11.14
2022-09-12T05:50:13.636Z,11.14
2022-09-12T05:51:13.637Z,11.17
2022-09-12T05:52:13.624Z,11.17
2022-09-12T05:53:13.628Z,11.19
2022-09-12T05:54:13.609Z,11.23
2022-09-12T05:55:13.598Z,11.26
2022-09-12T05:56:13.586Z,11.30
2022-09-12T05:57:13.568Z,11.30
2022-09-12T05:58:13.793Z,11.35
2022-09-12T05:59:13.547Z,11.40
2022-09-12T06:00:13.527Z,11.44
2022-09-12T06:01:13.532Z,11.47
2022-09-12T06:02:13.548Z,11.52
2022-09-12T06:03:13.497Z,11.57
2022-09-12T06:04:13.535Z,11.65
2022-09-12T06:05:13.477Z,11.72
2022-09-12T06:07:06.769Z,11.90
2022-09-12T06:08:06.748Z,11.99
2022-09-12T06:09:06.765Z,12.06
2022-09-12T06:10:06.729Z,12.12
2022-09-12T06:11:06.729Z,12.17
2022-09-12T06:12:06.719Z,12.22
2022-09-12T06:13:06.699Z,12.25
2022-09-12T06:14:06.680Z,12.32
2022-09-12T06:15:06.699Z,12.36
2022-09-12T06:16:06.660Z,12.40
2022-09-12T06:17:06.649Z,12.46
2022-09-12T06:18:06.638Z,12.50
2022-09-12T06:19:06.629Z,12.58
2022-09-12T06:20:06.619Z,12.70
2022-09-12T06:21:06.630Z,12.86
2022-09-12T06:22:06.601Z,13.04
2022-09-12T06:23:06.580Z,13.22
2022-09-12T06:24:06.570Z,13.28
2022-09-12T06:25:06.560Z,13.31
2022-09-12T06:26:06.549Z,13.33
2022-09-12T06:27:06.560Z,13.38
2022-09-12T06:28:06.519Z,13.44
2022-09-12T06:29:06.520Z,13.53
2022-09-12T06:30:06.500Z,13.54
2022-09-12T06:31:06.531Z,13.59
2022-09-12T06:32:06.480Z,13.72
2022-09-12T06:33:06.488Z,13.92
2022-09-12T06:34:06.465Z,14.03
2022-09-12T06:35:06.450Z,14.20
2022-09-12T06:36:11.532Z,14.47
2022-09-12T06:37:07.420Z,14.94
2022-09-12T06:38:06.431Z,15.51
2022-09-12T06:39:06.408Z,15.92
2022-09-12T06:40:06.413Z,16.32
2022-09-12T06:41:06.380Z,16.78
2022-09-12T06:42:06.370Z,17.06
2022-09-12T06:43:06.351Z,17.34
2022-09-12T06:44:06.361Z,17.83
2022-09-12T06:45:06.332Z,18.13
2022-09-12T06:46:06.402Z,18.49
2022-09-12T06:47:06.309Z,18.66
2022-09-12T06:48:06.299Z,18.65
2022-09-12T06:49:06.282Z,18.52
2022-09-12T06:50:06.292Z,18.44
2022-09-12T06:51:06.261Z,18.16
2022-09-12T06:52:06.253Z,17.87
2022-09-12T06:53:06.241Z,18.19
2022-09-12T06:54:06.230Z,18.44
2022-09-12T06:55:06.232Z,18.31
2022-09-12T06:56:06.202Z,18.34
2022-09-12T06:57:06.192Z,18.23
2022-09-12T06:58:06.186Z,18.19
2022-09-12T06:59:06.174Z,18.03
2022-09-12T07:00:06.162Z,18.35
2022-09-12T07:01:06.206Z,18.44
2022-09-12T07:02:06.192Z,18.60
2022-09-12T07:03:06.133Z,18.50
2022-09-12T07:04:06.113Z,18.66
2022-09-12T07:05:06.105Z,18.83
2022-09-12T07:06:06.093Z,19.18
2022-09-12T07:07:06.094Z,19.54
2022-09-12T07:08:06.065Z,19.71
2022-09-12T07:09:06.056Z,20.13
2022-09-12T07:10:06.046Z,20.44
2022-09-12T07:11:06.034Z,20.93
2022-09-12T07:12:06.046Z,21.14
2022-09-12T07:13:06.009Z,21.61
2022-09-12T07:14:06.004Z,21.80
2022-09-12T07:15:05.987Z,22.13
2022-09-12T07:16:05.977Z,22.29
2022-09-12T07:17:05.993Z,22.36
2022-09-12T07:18:05.979Z,21.93
2022-09-12T07:19:05.953Z,22.11
2022-09-12T07:20:05.937Z,22.38
2022-09-12T07:21:05.918Z,22.00
2022-09-12T07:22:05.907Z,21.76
2022-09-12T07:23:05.898Z,21.48
2022-09-12T07:24:05.908Z,21.36
2022-09-12T07:25:05.869Z,21.20
2022-09-12T07:26:05.866Z,21.21
2022-09-12T07:27:05.849Z,21.18
2022-09-12T07:28:05.840Z,20.81
2022-09-12T07:29:34.871Z,20.56
2022-09-12T07:30:06.839Z,20.59
2022-09-12T07:31:05.816Z,20.65
2022-09-12T07:32:05.917Z,20.78
2022-09-12T07:33:05.780Z,21.06
2022-09-12T07:34:05.770Z,21.20
2022-09-12T07:35:05.762Z,21.73
2022-09-12T07:36:05.771Z,21.69
2022-09-12T07:37:05.732Z,21.67
2022-09-12T07:38:05.833Z,21.57
2022-09-12T07:39:05.713Z,21.55
2022-09-12T07:40:05.758Z,22.02
2022-09-12T07:41:05.692Z,22.39
2022-09-12T07:42:05.702Z,22.81
2022-09-12T07:43:05.675Z,23.09
2022-09-12T07:44:05.664Z,23.21
2022-09-12T07:45:05.651Z,23.27
2022-09-12T07:46:05.684Z,23.27
2022-09-12T07:47:05.633Z,23.34
2022-09-12T07:48:05.643Z,23.25
2022-09-12T07:49:05.606Z,23.47
2022-09-12T07:50:05.594Z,23.59
2022-09-12T07:51:05.577Z,23.54
2022-09-12T07:52:05.575Z,23.36
2022-09-12T07:53:05.555Z,23.21
2022-09-12T07:54:05.566Z,22.99
2022-09-12T07:55:05.535Z,22.43
2022-09-12T07:56:05.548Z,22.30
2022-09-12T07:57:05.515Z,22.02
2022-09-12T07:58:05.506Z,21.85
2022-09-12T07:59:05.507Z,22.25
2022-09-12T08:00:05.487Z,22.54
2022-09-12T08:01:05.502Z,22.65
2022-09-12T08:02:05.527Z,22.80
2022-09-12T08:03:05.448Z,22.99
2022-09-12T08:04:05.437Z,23.56
2022-09-12T08:05:05.448Z,24.02
2022-09-12T08:06:05.418Z,24.48
2022-09-12T08:07:05.398Z,24.89
2022-09-12T08:08:05.397Z,25.28
2022-09-12T08:09:05.382Z,25.72
2022-09-12T08:10:05.368Z,26.05
2022-09-12T08:11:05.379Z,26.23
2022-09-12T08:12:05.349Z,26.38
2022-09-12T08:13:05.340Z,26.58
2022-09-12T08:14:05.331Z,26.62
2022-09-12T08:15:05.311Z,26.58
2022-09-12T08:16:05.377Z,26.60
2022-09-12T08:17:05.311Z,26.47
2022-09-12T08:18:05.289Z,26.41
2022-09-12T08:19:05.272Z,26.41
2022-09-12T08:20:05.265Z,26.18
2022-09-12T08:21:05.252Z,25.91
2022-09-12T08:22:05.271Z,25.50
2022-09-12T08:23:05.232Z,25.21
2022-09-12T08:24:05.252Z,25.10
2022-09-12T08:25:05.214Z,24.80
2022-09-12T08:26:06.390Z,24.58
2022-09-12T08:27:05.184Z,24.73
2022-09-12T08:28:05.216Z,24.95
2022-09-12T08:29:05.164Z,25.16
2022-09-12T08:30:05.154Z,25.44
2022-09-12T08:31:05.223Z,25.72
2022-09-12T08:32:05.138Z,25.90
2022-09-12T08:33:05.125Z,25.98
2022-09-12T08:34:05.136Z,25.91
2022-09-12T08:35:05.103Z,25.65
2022-09-12T08:36:05.096Z,25.59
2022-09-12T08:37:05.076Z,25.54
2022-09-12T08:38:05.077Z,25.54
2022-09-12T08:39:05.059Z,24.99
2022-09-12T08:40:05.141Z,24.20
2022-09-12T08:41:05.039Z,24.03
2022-09-12T08:42:05.107Z,24.02
2022-09-12T08:43:05.018Z,23.88
2022-09-12T08:44:05.008Z,23.59
2022-09-12T08:45:05.020Z,23.54
2022-09-12T08:46:05.086Z,23.66
2022-09-12T08:47:04.969Z,23.91
2022-09-12T08:48:04.959Z,23.92
2022-09-12T08:49:04.949Z,24.03
2022-09-12T08:50:04.940Z,24.23
2022-09-12T08:51:04.951Z,24.55
2022-09-12T08:52:04.920Z,25.04
2022-09-12T08:53:04.901Z,25.41
2022-09-12T08:54:04.903Z,25.63
2022-09-12T08:55:04.889Z,25.63
2022-09-12T08:56:04.880Z,25.62
2022-09-12T08:57:04.884Z,25.59
2022-09-12T08:58:04.853Z,25.59
2022-09-12T08:59:04.842Z,25.50
2022-09-12T09:00:04.832Z,25.22
2022-09-12T09:01:04.869Z,25.28
2022-09-12T09:02:04.881Z,25.62
2022-09-12T09:03:05.112Z,25.87
2022-09-12T09:04:04.792Z,26.21
2022-09-12T09:05:04.783Z,26.51
2022-09-12T09:06:04.764Z,26.96
2022-09-12T09:07:04.754Z,27.25
2022-09-12T09:08:04.767Z,27.48
2022-09-12T09:09:04.734Z,27.44
2022-09-12T09:10:04.725Z,27.48
2022-09-12T09:11:04.709Z,27.77
2022-09-12T09:12:04.712Z,27.75
2022-09-12T09:13:04.686Z,27.39
2022-09-12T09:14:05.515Z,27.29
2022-09-12T09:15:04.667Z,27.30
2022-09-12T09:16:04.734Z,27.29
2022-09-12T09:17:04.637Z,27.40
2022-09-12T09:18:04.647Z,27.26
2022-09-12T09:19:04.619Z,27.12
2022-09-12T09:20:04.627Z,26.89
2022-09-12T09:21:04.597Z,26.51
2022-09-12T09:22:04.598Z,26.07
2022-09-12T09:23:04.580Z,25.63
2022-09-12T09:24:04.569Z,25.35
2022-09-12T09:25:04.599Z,25.31
2022-09-12T09:26:04.548Z,25.31
2022-09-12T09:27:14.322Z,25.26
2022-09-12T09:28:05.523Z,25.07
2022-09-12T09:29:04.510Z,24.88
2022-09-12T09:30:04.500Z,24.80
2022-09-12T09:31:04.560Z,24.55
2022-09-12T09:32:04.479Z,24.33
2022-09-12T09:33:04.461Z,24.35
2022-09-12T09:34:04.452Z,24.47
2022-09-12T09:35:04.445Z,24.43
2022-09-12T09:36:04.433Z,24.38
2022-09-12T09:37:04.462Z,24.13
2022-09-12T09:38:04.413Z,23.83
2022-09-12T09:39:04.418Z,23.80
2022-09-12T09:40:04.426Z,23.84
2022-09-12T09:41:04.373Z,23.93
2022-09-12T09:42:04.371Z,24.10
2022-09-12T09:43:04.375Z,24.28
2022-09-12T09:44:04.394Z,24.47
2022-09-12T09:45:04.326Z,24.66
2022-09-12T09:46:04.358Z,24.81
2022-09-12T09:47:04.304Z,24.65
2022-09-12T09:48:04.307Z,24.42
2022-09-12T09:49:07.012Z,24.43
2022-09-12T09:50:04.276Z,24.47
2022-09-12T09:51:04.267Z,24.50
2022-09-12T09:52:04.255Z,24.29
2022-09-12T09:53:04.327Z,24.03
2022-09-12T09:54:04.236Z,24.05
2022-09-12T09:55:04.236Z,24.03
2022-09-12T09:56:04.214Z,23.95
2022-09-12T09:57:04.197Z,24.01
2022-09-12T09:58:04.187Z,24.16
2022-09-12T09:59:04.176Z,24.24
2022-09-12T10:00:04.167Z,24.10
2022-09-12T10:01:04.216Z,23.83
2022-09-12T10:02:04.212Z,23.80
2022-09-12T10:03:04.128Z,23.92
2022-09-12T10:04:04.119Z,24.01
2022-09-12T10:05:04.108Z,24.10
2022-09-12T10:06:04.096Z,24.14
2022-09-12T10:07:04.118Z,24.08
2022-09-12T10:08:04.071Z,24.17
2022-09-12T10:09:04.060Z,24.26
2022-09-12T10:10:04.050Z,24.11
2022-09-12T10:11:04.034Z,24.02
2022-09-12T10:12:04.051Z,23.87
2022-09-12T10:13:04.011Z,23.93
2022-09-12T10:14:04.001Z,23.95
2022-09-12T10:15:03.991Z,23.92
2022-09-12T10:16:03.999Z,23.77
2022-09-12T10:17:03.962Z,23.69
2022-09-12T10:18:03.981Z,23.78
2022-09-12T10:19:03.951Z,23.76
2022-09-12T10:20:20.431Z,23.87
2022-09-12T10:21:04.922Z,24.08
2022-09-12T10:22:03.914Z,24.10
2022-09-12T10:23:03.916Z,24.01
2022-09-12T10:24:03.894Z,23.74
2022-09-12T10:25:03.872Z,23.58
2022-09-12T10:26:03.869Z,23.51
2022-09-12T10:27:03.854Z,23.56
2022-09-12T10:28:03.844Z,23.61
2022-09-12T10:29:03.844Z,23.62
2022-09-12T10:30:03.829Z,23.66
2022-09-12T10:31:03.839Z,23.59
2022-09-12T10:32:03.804Z,23.63
2022-09-12T10:33:03.790Z,23.62
2022-09-12T10:34:03.803Z,23.59
2022-09-12T10:35:03.764Z,23.68
2022-09-12T10:36:03.755Z,23.86
2022-09-12T10:37:03.744Z,24.02
2022-09-12T10:38:03.738Z,24.17
2022-09-12T10:39:03.716Z,24.29
2022-09-12T10:40:03.792Z,24.29
2022-09-12T10:41:03.697Z,24.32
2022-09-12T10:42:03.697Z,24.36
2022-09-12T10:43:03.682Z,24.40
2022-09-12T10:44:03.666Z,24.53
2022-09-12T10:45:03.676Z,24.63
2022-09-12T10:46:03.676Z,24.47
2022-09-12T10:47:03.628Z,24.24
2022-09-12T10:48:07.535Z,24.01
2022-09-12T10:49:03.608Z,23.69
2022-09-12T10:50:03.599Z,23.55
2022-09-12T10:51:03.598Z,23.47
2022-09-12T10:52:03.579Z,23.56
2022-09-12T10:53:03.560Z,23.69
2022-09-12T10:54:03.558Z,23.71
2022-09-12T10:55:03.542Z,23.80
2022-09-12T10:56:03.571Z,23.83
2022-09-12T10:57:03.519Z,23.68
2022-09-12T10:58:03.518Z,23.46
2022-09-12T10:59:03.500Z,23.44
2022-09-12T11:00:03.489Z,23.51
2022-09-12T11:01:03.538Z,23.56
2022-09-12T11:02:03.546Z,23.58
2022-09-12T11:03:03.451Z,23.48
2022-09-12T11:04:03.441Z,23.55
2022-09-12T11:05:03.445Z,23.63
2022-09-12T11:06:03.421Z,23.59
2022-09-12T11:07:03.412Z,23.51
2022-09-12T11:08:03.426Z,23.43
2022-09-12T11:09:03.403Z,23.58
2022-09-12T11:10:03.380Z,23.73
2022-09-12T11:11:03.372Z,23.80
2022-09-12T11:12:03.356Z,23.83
2022-09-12T11:13:03.355Z,23.83
2022-09-12T11:14:03.363Z,23.80
2022-09-12T11:15:03.343Z,23.74
2022-09-12T11:16:03.337Z,23.92
2022-09-12T11:17:03.303Z,24.14
2022-09-12T11:18:03.292Z,24.38
2022-09-12T11:19:03.285Z,24.60
2022-09-12T11:20:03.285Z,24.73
2022-09-12T11:21:03.254Z,24.69
2022-09-12T11:22:03.245Z,24.54
2022-09-12T11:23:03.236Z,24.30
2022-09-12T11:24:03.221Z,24.17
2022-09-12T11:25:03.235Z,23.98
2022-09-12T11:26:03.196Z,23.84
2022-09-12T11:27:03.186Z,23.77
2022-09-12T11:28:03.176Z,23.66
2022-09-12T11:29:03.166Z,23.76
2022-09-12T11:30:03.156Z,23.78
2022-09-12T11:31:03.279Z,23.78
2022-09-12T11:32:03.128Z,23.80
2022-09-12T11:33:03.125Z,23.80
2022-09-12T11:34:03.107Z,23.83
2022-09-12T11:35:03.097Z,23.87
2022-09-12T11:36:03.108Z,24.02
2022-09-12T11:37:05.427Z,24.13
2022-09-12T11:38:03.066Z,24.20
2022-09-12T11:39:03.058Z,24.24
2022-09-12T11:40:03.092Z,24.17
2022-09-12T11:41:03.036Z,24.05
2022-09-12T11:42:03.068Z,23.99
2022-09-12T11:43:03.009Z,24.10
2022-09-12T11:44:03.000Z,24.24
2022-09-12T11:45:02.991Z,24.29
2022-09-12T11:46:03.001Z,24.35
2022-09-12T11:47:03.080Z,24.28
2022-09-12T11:48:02.970Z,24.18
2022-09-12T11:49:02.940Z,24.01
2022-09-12T11:50:02.932Z,24.03
2022-09-12T11:51:02.924Z,24.03
2022-09-12T11:52:02.911Z,24.14
2022-09-12T11:53:02.921Z,24.33
2022-09-12T11:54:02.881Z,24.35
2022-09-12T11:55:02.880Z,24.24
2022-09-12T11:56:02.862Z,24.06
2022-09-12T11:57:02.861Z,23.91
2022-09-12T11:58:02.842Z,23.71
2022-09-12T11:59:02.853Z,23.66
2022-09-12T12:00:02.823Z,23.65
2022-09-12T12:01:02.813Z,23.74
2022-09-12T12:02:02.837Z,23.87
2022-09-12T12:03:02.791Z,23.81
2022-09-12T12:04:02.773Z,23.81
2022-09-12T12:05:02.784Z,23.88
2022-09-12T12:06:02.754Z,23.96
2022-09-12T12:07:09.799Z,24.05
2022-09-12T12:08:04.430Z,24.11
2022-09-12T12:09:05.358Z,24.08
2022-09-12T12:10:02.740Z,24.06
2022-09-12T12:11:02.711Z,24.02
2022-09-12T12:12:02.691Z,24.02
2022-09-12T12:13:02.700Z,24.02
2022-09-12T12:14:02.671Z,24.08
2022-09-12T12:15:02.660Z,24.10
2022-09-12T12:16:02.743Z,24.11
2022-09-12T12:17:02.642Z,24.21
2022-09-12T12:18:02.646Z,24.33
2022-09-12T12:19:02.621Z,24.42
2022-09-12T12:20:06.693Z,24.45
2022-09-12T12:21:03.614Z,24.35
2022-09-12T12:22:02.573Z,24.39
2022-09-12T12:23:02.571Z,24.43
2022-09-12T12:24:02.555Z,24.51
2022-09-12T12:25:02.553Z,24.58
2022-09-12T12:26:02.533Z,24.60
2022-09-12T12:27:02.546Z,24.57
2022-09-12T12:28:02.513Z,24.60
2022-09-12T12:29:02.502Z,24.58
2022-09-12T12:30:02.484Z,24.43
2022-09-12T12:31:02.529Z,24.39
2022-09-12T12:32:02.454Z,24.33
2022-09-12T12:33:02.476Z,24.33
2022-09-12T12:34:02.465Z,24.33
2022-09-12T12:35:02.434Z,24.40
2022-09-12T12:36:02.415Z,24.47
2022-09-12T12:37:07.162Z,24.53
2022-09-12T12:38:03.424Z,24.54
2022-09-12T12:39:02.386Z,24.42
2022-09-12T12:40:02.419Z,24.45
2022-09-12T12:41:02.378Z,24.47
2022-09-12T12:42:02.347Z,24.43
2022-09-12T12:43:02.336Z,24.33
2022-09-12T12:44:02.367Z,24.42
2022-09-12T12:45:02.318Z,24.51
2022-09-12T12:46:02.368Z,24.60
2022-09-12T12:47:02.313Z,24.61
2022-09-12T12:48:06.253Z,24.65
2022-09-12T12:49:03.287Z,24.73
2022-09-12T12:50:02.256Z,24.70
2022-09-12T12:51:02.250Z,24.73
2022-09-12T12:52:02.262Z,24.68
2022-09-12T12:53:02.219Z,24.70